aviador You're here:

OIZH Decoded Metar

ZAHEDAN in IRAN
Report Time2018-02-22 08:30:00
UTC Time2018-02-22 08:48:34
Flight Rules vfr VFR
WindCalm
Visibility9999 m
Phenomena:N/A
Clouds:N/A
Expected CloudBase > 11,600 ft AGL from Temp-Dew spread
CeilingNone
Temp22°C (ISA +16)
Dew Point-7°C (14% RH)
AAT19.2°C
QNH1015 hPa
Density Alt6,312 ft
Elevation4,495 ft
Report Wrong Elevation
Raw Report
METAR OIZH 220830Z 00000KT CAVOK 22/M07 Q1015 A2999=

Extra information for OIZH:More info

Metar Taf Metar & Taf Last 4 Metars F.Rules Stats Wind Profile Meteogram Temp Stats Airport Information Weather charts Add Link Nearby VenuesMetar ALERT Operation Metar Decoded Social comments